Time;durP1;ratioP1;P1;durP2;ratioP2;P2;SDS_P1;SDS_P2;PMS_P1;PMS_P2;Temp;Humidity;BMP_temperature;BMP_pressure;BME280_temperature;BME280_humidity;BME280_pressure;Samples;Min_cycle;Max_cycle;Signal;HPM_P1;HPM_P2
2023/10/27 00:01:43;;;;;;;2.90;1.40;;;13.20;90.00;;;;;;4987643;28;20042;-64
2023/10/27 00:04:08;;;;;;;2.95;1.30;;;13.20;90.00;;;;;;4987312;28;20036;-64
2023/10/27 00:06:34;;;;;;;2.60;1.00;;;13.20;90.00;;;;;;4987008;28;20461;-64
2023/10/27 00:09:00;;;;;;;4.55;1.35;;;13.10;90.10;;;;;;4987187;28;20351;-64
2023/10/27 00:11:27;;;;;;;2.45;1.33;;;13.10;90.10;;;;;;4983668;28;20109;-64
2023/10/27 00:13:52;;;;;;;3.67;1.60;;;13.10;90.20;;;;;;4986657;28;20133;-65
2023/10/27 00:16:18;;;;;;;4.63;1.90;;;13.00;90.20;;;;;;4987168;28;20121;-65
2023/10/27 00:18:44;;;;;;;4.13;1.50;;;13.10;90.20;;;;;;4986885;28;25124;-64
2023/10/27 00:21:10;;;;;;;3.60;1.50;;;13.00;90.20;;;;;;4986613;28;20450;-65
2023/10/27 00:23:35;;;;;;;2.55;1.38;;;13.10;90.20;;;;;;4987014;28;20113;-64
2023/10/27 00:26:02;;;;;;;2.88;1.30;;;13.00;90.10;;;;;;4987214;28;20678;-64
2023/10/27 00:28:28;;;;;;;2.60;1.15;;;13.00;90.20;;;;;;4984755;28;20059;-65
2023/10/27 00:30:54;;;;;;;2.65;1.13;;;13.00;90.20;;;;;;4986639;28;20044;-65
2023/10/27 00:33:19;;;;;;;1.35;1.00;;;13.00;90.20;;;;;;4987142;28;20034;-64
2023/10/27 00:35:48;;;;;;;6.53;1.05;;;13.00;90.20;;;;;;4987126;28;20035;-64
2023/10/27 00:38:14;;;;;;;2.10;1.00;;;13.00;90.20;;;;;;4986901;28;20702;-65
2023/10/27 00:40:40;;;;;;;2.95;0.90;;;12.90;90.10;;;;;;4985890;28;20034;-65
2023/10/27 00:43:06;;;;;;;1.75;0.63;;;12.90;90.10;;;;;;4986142;28;20038;-65
2023/10/27 00:45:32;;;;;;;1.08;0.70;;;13.00;90.20;;;;;;4986464;28;20379;-64
2023/10/27 00:47:58;;;;;;;0.80;0.45;;;12.90;90.20;;;;;;4986850;28;20463;-64
2023/10/27 00:50:24;;;;;;;1.20;0.50;;;13.00;90.20;;;;;;4986244;28;20039;-65
2023/10/27 00:52:50;;;;;;;2.95;0.85;;;13.00;90.20;;;;;;4986046;28;20085;-64
2023/10/27 00:55:16;;;;;;;2.00;0.95;;;13.00;90.10;;;;;;4989327;28;20034;-65
2023/10/27 00:57:42;;;;;;;2.40;1.27;;;13.00;90.10;;;;;;4991119;28;20038;-64
2023/10/27 01:00:08;;;;;;;2.42;1.20;;;12.90;90.00;;;;;;4986477;28;20497;-65
2023/10/27 01:02:34;;;;;;;2.75;1.00;;;13.00;90.10;;;;;;4983913;28;20206;-65
2023/10/27 01:04:59;;;;;;;2.10;1.05;;;13.00;90.00;;;;;;4986202;28;20038;-65
2023/10/27 01:07:25;;;;;;;3.40;1.38;;;12.90;89.90;;;;;;4987328;28;20532;-64
2023/10/27 01:09:51;;;;;;;2.47;1.25;;;13.00;90.00;;;;;;4987033;28;20113;-64
2023/10/27 01:12:17;;;;;;;2.78;1.20;;;12.90;90.00;;;;;;4983850;28;20038;-65
2023/10/27 01:14:43;;;;;;;1.75;1.10;;;12.90;90.10;;;;;;4985555;28;20565;-64
2023/10/27 01:17:09;;;;;;;2.35;1.05;;;12.90;90.10;;;;;;4986502;28;20034;-64
2023/10/27 01:19:36;;;;;;;2.00;1.40;;;12.90;90.20;;;;;;4986932;28;20049;-64
2023/10/27 01:22:03;;;;;;;1.63;0.95;;;12.90;90.20;;;;;;4986426;28;20181;-64
2023/10/27 01:24:28;;;;;;;2.50;1.13;;;12.90;90.20;;;;;;4985644;28;20082;-64
2023/10/27 01:26:55;;;;;;;4.35;1.10;;;12.90;90.20;;;;;;4986863;28;20034;-65
2023/10/27 01:29:22;;;;;;;1.70;0.70;;;12.90;90.30;;;;;;4986600;28;20473;-65
2023/10/27 01:31:48;;;;;;;3.08;1.13;;;12.90;90.20;;;;;;4988076;28;20129;-64
2023/10/27 01:34:14;;;;;;;1.90;0.90;;;12.90;90.20;;;;;;4990020;28;20125;-65
2023/10/27 01:36:40;;;;;;;1.85;0.77;;;12.90;90.20;;;;;;4989546;28;20121;-63
2023/10/27 01:39:05;;;;;;;1.08;0.65;;;12.90;90.00;;;;;;4990230;28;20469;-64
2023/10/27 01:41:31;;;;;;;2.13;0.90;;;13.00;90.10;;;;;;4990113;28;20042;-64
2023/10/27 01:43:57;;;;;;;4.53;1.00;;;12.90;90.10;;;;;;4989958;28;20038;-64
2023/10/27 01:46:22;;;;;;;2.50;0.80;;;12.90;90.20;;;;;;4990087;28;20038;-63
2023/10/27 01:48:48;;;;;;;1.63;0.60;;;12.90;90.10;;;;;;4989445;28;20043;-64
2023/10/27 01:51:14;;;;;;;1.40;0.50;;;12.90;90.20;;;;;;4989750;28;20117;-63
2023/10/27 01:53:40;;;;;;;1.65;0.60;;;12.90;90.20;;;;;;4989037;28;20073;-64
2023/10/27 01:56:06;;;;;;;2.97;0.70;;;12.90;90.20;;;;;;4989693;28;20054;-64
2023/10/27 01:58:31;;;;;;;1.52;0.68;;;12.90;90.20;;;;;;4988676;28;20031;-64
2023/10/27 02:00:57;;;;;;;1.70;0.68;;;13.00;90.10;;;;;;4989683;28;20506;-63
2023/10/27 02:03:23;;;;;;;2.42;0.60;;;12.90;90.10;;;;;;4990129;28;20030;-64
2023/10/27 02:05:48;;;;;;;0.82;0.77;;;12.90;90.10;;;;;;4989352;28;20817;-64
2023/10/27 02:08:14;;;;;;;2.30;0.80;;;13.00;90.10;;;;;;4989914;28;20066;-65
2023/10/27 02:10:39;;;;;;;2.08;0.88;;;12.90;90.10;;;;;;4988180;28;20034;-64
2023/10/27 02:13:05;;;;;;;1.55;0.70;;;12.90;90.10;;;;;;4989384;28;20046;-64
2023/10/27 02:15:30;;;;;;;2.45;0.88;;;12.90;90.10;;;;;;4989395;28;20125;-64
2023/10/27 02:17:56;;;;;;;1.40;0.90;;;12.80;90.10;;;;;;4989539;28;20077;-65
2023/10/27 02:20:22;;;;;;;1.60;0.90;;;12.80;90.20;;;;;;4989225;28;20506;-64
2023/10/27 02:22:47;;;;;;;1.90;0.82;;;12.80;90.20;;;;;;4989009;28;20038;-64
2023/10/27 02:25:13;;;;;;;3.55;1.05;;;12.80;90.30;;;;;;4988937;28;20043;-61
2023/10/27 02:27:40;;;;;;;2.42;1.30;;;12.80;90.30;;;;;;4989165;28;20039;-63
2023/10/27 02:30:07;;;;;;;1.80;0.88;;;12.80;90.40;;;;;;4988953;28;20081;-65
2023/10/27 02:32:32;;;;;;;1.95;1.30;;;12.70;90.30;;;;;;4988879;28;20506;-64
2023/10/27 02:34:58;;;;;;;2.88;1.30;;;12.70;90.30;;;;;;4989231;28;20037;-64
2023/10/27 02:37:24;;;;;;;1.58;1.10;;;12.70;90.40;;;;;;4989324;28;20521;-64
2023/10/27 02:39:49;;;;;;;1.52;0.93;;;12.70;90.40;;;;;;4988719;28;20521;-65
2023/10/27 02:42:15;;;;;;;1.30;1.08;;;12.70;90.50;;;;;;4988716;28;20044;-65
2023/10/27 02:44:42;;;;;;;1.30;1.20;;;12.70;90.40;;;;;;4987345;28;20327;-65
2023/10/27 02:47:07;;;;;;;2.03;1.02;;;12.70;90.50;;;;;;4989107;28;20230;-63
2023/10/27 02:49:33;;;;;;;2.42;1.10;;;12.70;90.50;;;;;;4988979;28;20030;-64
2023/10/27 02:51:58;;;;;;;1.60;1.13;;;12.70;90.40;;;;;;4988660;28;20109;-63
2023/10/27 02:54:24;;;;;;;2.33;1.00;;;12.70;90.40;;;;;;4988306;28;20077;-64
2023/10/27 02:56:50;;;;;;;2.22;0.90;;;12.70;90.40;;;;;;4988330;28;20041;-64
2023/10/27 02:59:15;;;;;;;1.55;0.88;;;12.70;90.40;;;;;;4986283;28;20109;-64
2023/10/27 03:01:43;;;;;;;1.48;0.90;;;12.70;90.40;;;;;;4988626;28;20034;-64
2023/10/27 03:04:09;;;;;;;2.25;0.88;;;12.60;90.40;;;;;;4988118;28;20439;-63
2023/10/27 03:06:36;;;;;;;0.93;0.70;;;12.60;90.30;;;;;;4987919;28;20031;-64
2023/10/27 03:09:02;;;;;;;2.38;0.90;;;12.60;90.30;;;;;;4988689;28;20044;-63
2023/10/27 03:11:28;;;;;;;1.55;0.93;;;12.60;90.30;;;;;;4985715;28;20027;-64
2023/10/27 03:13:53;;;;;;;1.95;0.85;;;12.60;90.40;;;;;;4988319;28;20100;-64
2023/10/27 03:16:19;;;;;;;1.58;0.85;;;12.60;90.40;;;;;;4988587;28;20034;-64
2023/10/27 03:18:44;;;;;;;1.85;0.90;;;12.50;90.40;;;;;;4987581;28;20038;-63
2023/10/27 03:21:10;;;;;;;1.80;1.10;;;12.50;90.40;;;;;;4988594;28;20683;-64
2023/10/27 03:23:36;;;;;;;1.85;1.08;;;12.50;90.40;;;;;;4987902;28;20035;-64
2023/10/27 03:26:01;;;;;;;1.70;1.20;;;12.50;90.50;;;;;;4988395;28;20491;-64
2023/10/27 03:28:27;;;;;;;1.70;1.40;;;12.50;90.50;;;;;;4987663;28;20045;-63
2023/10/27 03:30:53;;;;;;;1.10;1.00;;;12.50;90.60;;;;;;4987105;28;20414;-64
2023/10/27 03:33:18;;;;;;;2.28;1.30;;;12.50;90.70;;;;;;4988124;28;20133;-65
2023/10/27 03:35:44;;;;;;;3.17;1.10;;;12.50;90.70;;;;;;4988009;28;20109;-64
2023/10/27 03:38:11;;;;;;;1.33;1.00;;;12.50;90.60;;;;;;4987819;28;20101;-65
2023/10/27 03:40:37;;;;;;;3.15;1.10;;;12.50;90.50;;;;;;4987281;28;20283;-65
2023/10/27 03:43:03;;;;;;;2.13;1.17;;;12.50;90.60;;;;;;4987927;28;20085;-64
2023/10/27 03:45:29;;;;;;;2.28;0.90;;;12.50;90.70;;;;;;4988000;28;20514;-63
2023/10/27 03:47:54;;;;;;;2.40;1.20;;;12.50;90.70;;;;;;4987753;28;20043;-64
2023/10/27 03:50:20;;;;;;;1.60;1.00;;;12.50;90.60;;;;;;4986854;28;20054;-63
2023/10/27 03:52:46;;;;;;;3.65;1.00;;;12.50;90.60;;;;;;4985918;28;20076;-64
2023/10/27 03:55:12;;;;;;;2.05;1.08;;;12.50;90.60;;;;;;4987556;28;20513;-65
2023/10/27 03:57:40;;;;;;;1.33;0.90;;;12.50;90.60;;;;;;4986575;28;20057;-64
2023/10/27 04:00:07;;;;;;;1.48;0.90;;;12.50;90.50;;;;;;4988528;28;20502;-64
2023/10/27 04:02:33;;;;;;;1.73;1.00;;;12.50;90.50;;;;;;4986563;28;20038;-64
2023/10/27 04:04:59;;;;;;;1.45;1.27;;;12.50;90.90;;;;;;4987301;28;20034;-65
2023/10/27 04:07:25;;;;;;;2.03;1.20;;;12.50;90.60;;;;;;4987098;28;20038;-64
2023/10/27 04:09:51;;;;;;;1.73;1.02;;;12.50;90.60;;;;;;4986100;28;20054;-64
2023/10/27 04:12:16;;;;;;;1.83;1.00;;;12.50;90.60;;;;;;4983747;28;20061;-64
2023/10/27 04:14:42;;;;;;;1.05;0.80;;;12.50;90.60;;;;;;4985448;28;20085;-64
2023/10/27 04:17:08;;;;;;;1.20;0.85;;;12.40;90.60;;;;;;4986899;28;20042;-65
2023/10/27 04:19:33;;;;;;;0.75;0.50;;;12.40;90.60;;;;;;4985455;28;20039;-63
2023/10/27 04:21:59;;;;;;;0.77;0.50;;;12.40;90.60;;;;;;4985711;28;20129;-63
2023/10/27 04:24:25;;;;;;;0.95;0.70;;;12.50;90.60;;;;;;4986412;28;20049;-63
2023/10/27 04:26:51;;;;;;;1.55;0.70;;;12.40;90.50;;;;;;4986122;28;20093;-64
2023/10/27 04:29:17;;;;;;;1.08;0.50;;;12.40;90.60;;;;;;4986943;28;20034;-64
2023/10/27 04:31:43;;;;;;;0.60;0.50;;;12.40;90.60;;;;;;4986998;28;20035;-64
2023/10/27 04:34:10;;;;;;;1.20;0.60;;;12.20;90.60;;;;;;4987084;28;20117;-63
2023/10/27 04:36:36;;;;;;;0.90;0.70;;;12.40;90.60;;;;;;4986391;28;20040;-64
2023/10/27 04:39:03;;;;;;;0.93;0.50;;;12.40;90.60;;;;;;4987504;28;20030;-64
2023/10/27 04:41:30;;;;;;;1.92;0.52;;;12.40;90.60;;;;;;4986708;28;20391;-64
2023/10/27 04:43:56;;;;;;;1.17;0.47;;;12.30;90.60;;;;;;4986785;28;20039;-63
2023/10/27 04:46:22;;;;;;;1.33;0.70;;;12.30;90.70;;;;;;4986940;28;20045;-64
2023/10/27 04:48:48;;;;;;;1.70;0.60;;;12.30;90.70;;;;;;4985654;28;20100;-64
2023/10/27 04:51:13;;;;;;;2.13;0.60;;;12.30;90.80;;;;;;4987030;28;20026;-64
2023/10/27 04:53:39;;;;;;;0.80;0.50;;;12.30;90.80;;;;;;4985704;28;20515;-64
2023/10/27 04:56:05;;;;;;;1.23;0.95;;;12.30;90.80;;;;;;4987231;28;20101;-64
2023/10/27 04:58:30;;;;;;;1.40;1.30;;;12.30;90.80;;;;;;4985638;28;20058;-64
2023/10/27 05:00:56;;;;;;;1.15;0.68;;;12.40;91.10;;;;;;4986193;28;20042;-64
2023/10/27 05:03:22;;;;;;;1.05;0.90;;;12.40;90.80;;;;;;4986604;28;20045;-63
2023/10/27 05:05:47;;;;;;;1.10;0.85;;;12.40;90.80;;;;;;4985940;28;20112;-64
2023/10/27 05:08:13;;;;;;;1.40;0.90;;;12.30;90.80;;;;;;4986878;28;20286;-64
2023/10/27 05:10:40;;;;;;;1.58;1.48;;;12.30;90.80;;;;;;4980732;28;20038;-64
2023/10/27 05:13:06;;;;;;;3.90;2.50;;;12.40;90.90;;;;;;4986350;28;20030;-64
2023/10/27 05:15:32;;;;;;;3.42;2.20;;;12.40;90.90;;;;;;4986805;28;20054;-64
2023/10/27 05:18:04;;;;;;;2.58;1.98;;;12.40;90.90;;;;;;4986205;28;20140;-64
2023/10/27 05:20:31;;;;;;;3.00;1.90;;;12.30;90.90;;;;;;4985997;28;20055;-64
2023/10/27 05:22:56;;;;;;;2.08;1.55;;;12.30;90.90;;;;;;4986258;28;20038;-64
2023/10/27 05:25:22;;;;;;;1.98;1.88;;;12.40;91.00;;;;;;4986347;28;20069;-64
2023/10/27 05:27:48;;;;;;;2.60;1.83;;;12.30;90.90;;;;;;4986415;28;20031;-64
2023/10/27 05:30:13;;;;;;;2.85;2.10;;;12.30;91.00;;;;;;4986572;28;20031;-64
2023/10/27 05:32:39;;;;;;;2.22;2.03;;;12.30;91.00;;;;;;4985783;28;20026;-64
2023/10/27 05:35:05;;;;;;;3.35;2.10;;;12.40;91.10;;;;;;4985978;28;20042;-65
2023/10/27 05:37:31;;;;;;;2.45;2.25;;;12.40;91.10;;;;;;4986223;28;20049;-64
2023/10/27 05:39:56;;;;;;;2.53;2.33;;;12.40;91.10;;;;;;4986250;28;20039;-64
2023/10/27 05:42:22;;;;;;;4.07;2.60;;;12.30;91.10;;;;;;4986049;28;20034;-64
2023/10/27 05:44:47;;;;;;;3.10;2.80;;;12.30;91.10;;;;;;4985084;28;20043;-63
2023/10/27 05:47:13;;;;;;;3.10;2.80;;;12.40;91.10;;;;;;4986275;28;20049;-64
2023/10/27 05:49:39;;;;;;;3.25;2.60;;;12.40;91.20;;;;;;4986176;28;20116;-64
2023/10/27 05:52:04;;;;;;;4.30;2.50;;;12.40;91.20;;;;;;4986198;28;20528;-64
2023/10/27 05:54:30;;;;;;;4.18;2.67;;;12.30;91.20;;;;;;4985197;28;20042;-64
2023/10/27 05:56:56;;;;;;;4.63;2.80;;;12.30;91.30;;;;;;4985377;28;20046;-65
2023/10/27 05:59:22;;;;;;;3.05;2.58;;;12.30;91.40;;;;;;4984599;28;20034;-64
2023/10/27 06:01:48;;;;;;;2.35;2.15;;;12.30;91.40;;;;;;4984761;28;20026;-64
2023/10/27 06:04:17;;;;;;;3.15;2.30;;;12.30;91.40;;;;;;4986070;28;20211;-64
2023/10/27 06:06:43;;;;;;;2.60;2.40;;;12.30;91.50;;;;;;4985203;28;20054;-65
2023/10/27 06:09:08;;;;;;;3.58;2.13;;;12.30;91.60;;;;;;4986037;28;20138;-64
2023/10/27 06:11:34;;;;;;;1.73;1.63;;;12.30;91.60;;;;;;4983637;28;20066;-64
2023/10/27 06:14:00;;;;;;;1.77;1.65;;;12.30;91.70;;;;;;4985528;28;20109;-64
2023/10/27 06:16:25;;;;;;;1.25;1.15;;;12.30;91.60;;;;;;4985561;28;20034;-64
2023/10/27 06:18:54;;;;;;;1.10;0.98;;;12.30;91.60;;;;;;4987783;28;20445;-64
2023/10/27 06:21:19;;;;;;;0.85;0.80;;;12.30;91.70;;;;;;4989793;28;20549;-63
2023/10/27 06:23:45;;;;;;;0.60;0.60;;;12.30;91.70;;;;;;4989336;28;20034;-63
2023/10/27 06:26:11;;;;;;;0.50;0.40;;;12.40;91.70;;;;;;4989449;28;20034;-64
2023/10/27 06:28:36;;;;;;;0.43;0.40;;;12.40;91.70;;;;;;4988103;28;20035;-64
2023/10/27 06:31:03;;;;;;;0.60;0.40;;;12.30;91.70;;;;;;4989255;28;20042;-63
2023/10/27 06:33:32;;;;;;;0.57;0.47;;;12.40;91.80;;;;;;4989052;28;20438;-64
2023/10/27 06:35:59;;;;;;;1.17;0.50;;;12.40;91.80;;;;;;4989495;28;20050;-64
2023/10/27 06:38:25;;;;;;;0.60;0.60;;;12.40;91.80;;;;;;4988970;28;20466;-64
2023/10/27 06:40:50;;;;;;;1.20;0.60;;;12.40;91.80;;;;;;4989116;28;20039;-64
2023/10/27 06:43:16;;;;;;;0.70;0.70;;;12.40;91.70;;;;;;4988721;28;20038;-64
2023/10/27 06:45:41;;;;;;;0.35;0.35;;;12.50;91.80;;;;;;4988645;28;20096;-64
2023/10/27 06:48:07;;;;;;;1.25;0.50;;;12.50;91.70;;;;;;4989087;28;20061;-64
2023/10/27 06:50:33;;;;;;;0.50;0.40;;;12.50;91.70;;;;;;4988497;28;20038;-64
2023/10/27 06:52:58;;;;;;;0.45;0.30;;;12.50;91.70;;;;;;4988230;28;20198;-64
2023/10/27 06:55:24;;;;;;;0.45;0.30;;;12.50;91.70;;;;;;4988407;28;20034;-64
2023/10/27 06:57:49;;;;;;;0.30;0.30;;;12.50;91.80;;;;;;4987602;28;20138;-65
2023/10/27 07:00:15;;;;;;;0.60;0.40;;;12.60;91.70;;;;;;4988604;28;20041;-63
2023/10/27 07:02:41;;;;;;;0.52;0.30;;;12.60;91.80;;;;;;4987960;28;20038;-65
2023/10/27 07:05:08;;;;;;;0.65;0.38;;;12.60;91.70;;;;;;4988673;28;20046;-64
2023/10/27 07:07:34;;;;;;;0.20;0.20;;;12.60;91.70;;;;;;4988693;28;20061;-64
2023/10/27 07:09:59;;;;;;;0.40;0.30;;;12.60;91.70;;;;;;4987197;28;20026;-64
2023/10/27 07:12:25;;;;;;;0.95;0.43;;;12.60;91.70;;;;;;4984469;28;20595;-65
2023/10/27 07:14:51;;;;;;;0.20;0.20;;;12.70;91.70;;;;;;4988093;28;20026;-64
2023/10/27 07:17:16;;;;;;;0.30;0.28;;;12.70;91.70;;;;;;4988447;28;20038;-64
2023/10/27 07:19:42;;;;;;;0.32;0.30;;;12.70;91.70;;;;;;4988372;28;20406;-64
2023/10/27 07:22:07;;;;;;;0.38;0.25;;;12.70;91.70;;;;;;4988803;28;20405;-64
2023/10/27 07:24:33;;;;;;;0.30;0.30;;;12.70;91.70;;;;;;4988040;28;20401;-64
2023/10/27 07:26:59;;;;;;;0.20;0.20;;;12.80;91.70;;;;;;4988287;28;20035;-64
2023/10/27 07:29:24;;;;;;;0.40;0.40;;;12.80;91.60;;;;;;4987998;28;20066;-64
2023/10/27 07:31:50;;;;;;;0.20;0.20;;;12.80;91.60;;;;;;4988154;28;20239;-64
2023/10/27 07:34:15;;;;;;;0.20;0.20;;;12.80;91.60;;;;;;4988065;28;20034;-64
2023/10/27 07:36:41;;;;;;;0.20;0.20;;;12.80;91.50;;;;;;4987624;28;20057;-64
2023/10/27 07:39:07;;;;;;;0.20;0.20;;;12.80;91.50;;;;;;4988255;28;20037;-63
2023/10/27 07:41:35;;;;;;;1.10;0.20;;;12.80;91.50;;;;;;4987872;28;20403;-64
2023/10/27 07:44:02;;;;;;;0.45;0.20;;;12.80;91.50;;;;;;4987827;28;20480;-64
2023/10/27 07:46:28;;;;;;;1.15;0.30;;;12.80;91.60;;;;;;4987620;28;20030;-64
2023/10/27 07:48:53;;;;;;;0.90;0.22;;;12.80;91.60;;;;;;4987796;28;20494;-64
2023/10/27 07:51:19;;;;;;;1.55;0.20;;;12.90;91.60;;;;;;4988709;28;20061;-65
2023/10/27 07:53:45;;;;;;;0.20;0.20;;;12.90;91.60;;;;;;4987315;28;20042;-65
2023/10/27 07:56:11;;;;;;;0.47;0.30;;;12.90;91.60;;;;;;4988079;28;20041;-64
2023/10/27 07:58:37;;;;;;;1.48;0.20;;;13.00;91.60;;;;;;4985888;28;20045;-64
2023/10/27 08:01:05;;;;;;;0.80;0.40;;;13.00;91.60;;;;;;4987273;28;20030;-64
2023/10/27 08:03:31;;;;;;;0.30;0.20;;;13.00;91.60;;;;;;4985876;28;20490;-64
2023/10/27 08:05:57;;;;;;;0.20;0.20;;;13.10;91.60;;;;;;4988310;28;20070;-64
2023/10/27 08:08:23;;;;;;;0.30;0.30;;;13.10;91.60;;;;;;4988493;28;20070;-64
2023/10/27 08:10:49;;;;;;;0.60;0.30;;;13.10;91.70;;;;;;4983993;28;20406;-63
2023/10/27 08:13:20;;;;;;;0.20;0.20;;;13.20;91.60;;;;;;4988103;28;20034;-65
2023/10/27 08:15:46;;;;;;;0.30;0.20;;;13.20;91.50;;;;;;4988643;28;20505;-63
2023/10/27 08:18:13;;;;;;;0.20;0.20;;;13.20;91.50;;;;;;4988157;28;20034;-64
2023/10/27 08:20:39;;;;;;;0.20;0.20;;;13.30;91.50;;;;;;4987608;28;20027;-64
2023/10/27 08:23:05;;;;;;;0.55;0.20;;;13.30;91.40;;;;;;4988726;28;20046;-64
2023/10/27 08:25:31;;;;;;;0.52;0.30;;;13.30;91.30;;;;;;4987874;28;20042;-64
2023/10/27 08:27:56;;;;;;;0.52;0.20;;;13.40;91.30;;;;;;4987946;28;20518;-64
2023/10/27 08:30:22;;;;;;;0.47;0.20;;;13.40;91.20;;;;;;4987878;28;20514;-64
2023/10/27 08:32:47;;;;;;;0.28;0.22;;;13.40;91.20;;;;;;4987782;28;20038;-65
2023/10/27 08:35:13;;;;;;;2.22;0.50;;;13.40;91.00;;;;;;4987843;28;20026;-64
2023/10/27 08:37:38;;;;;;;0.20;0.10;;;13.50;90.90;;;;;;4988053;28;20553;-64
2023/10/27 08:40:12;;;;;;;2.08;0.20;;;13.50;90.90;;;;;;4988139;28;20588;-64
2023/10/27 08:42:43;;;;;;;0.65;0.22;;;13.50;90.70;;;;;;4986389;28;20496;-64
2023/10/27 08:45:09;;;;;;;1.77;0.30;;;13.50;90.30;;;;;;4987885;28;20044;-64
2023/10/27 08:47:36;;;;;;;1.50;0.20;;;13.50;90.20;;;;;;4979883;28;20045;-64
2023/10/27 08:50:05;;;;;;;0.68;0.20;;;13.60;90.20;;;;;;4987945;28;20038;-64
2023/10/27 08:52:32;;;;;;;0.50;0.20;;;13.60;90.00;;;;;;4987381;28;20034;-64
2023/10/27 08:55:06;;;;;;;3.35;0.20;;;13.60;89.50;;;;;;4987729;28;20031;-64
2023/10/27 08:57:32;;;;;;;2.92;0.30;;;13.60;89.20;;;;;;4987619;28;20525;-64
2023/10/27 08:59:58;;;;;;;0.80;0.20;;;13.60;89.20;;;;;;4986775;28;20038;-64
2023/10/27 09:02:31;;;;;;;2.05;0.30;;;13.70;88.60;;;;;;4987539;28;20041;-64
2023/10/27 09:05:01;;;;;;;0.82;0.38;;;13.70;88.90;;;;;;4986807;28;20049;-64
2023/10/27 09:07:26;;;;;;;0.95;0.40;;;13.70;88.00;;;;;;4988100;28;20434;-64
2023/10/27 09:09:52;;;;;;;0.82;0.30;;;13.70;87.70;;;;;;4987518;28;20097;-63
2023/10/27 09:12:27;;;;;;;2.47;0.43;;;13.70;87.40;;;;;;4983485;28;20552;-63
2023/10/27 09:15:04;;;;;;;0.57;0.20;;;13.70;86.40;;;;;;4987131;28;20097;-64
2023/10/27 09:17:30;;;;;;;1.42;0.30;;;13.70;86.20;;;;;;4987487;28;20066;-64
2023/10/27 09:20:07;;;;;;;1.15;0.50;;;13.70;86.30;;;;;;4987925;28;20634;-64
2023/10/27 09:22:32;;;;;;;1.00;0.20;;;13.80;85.70;;;;;;4987224;28;20042;-64
2023/10/27 09:25:14;;;;;;;1.48;0.30;;;13.80;85.80;;;;;;4986660;28;20064;-64
2023/10/27 09:27:46;;;;;;;2.30;0.45;;;13.80;85.30;;;;;;4986835;28;20037;-64
2023/10/27 09:30:13;;;;;;;1.30;0.35;;;13.90;85.70;;;;;;4986361;28;20043;-63
2023/10/27 09:32:40;;;;;;;1.05;0.47;;;13.90;86.10;;;;;;4986937;28;20073;-64
2023/10/27 09:35:13;;;;;;;1.52;0.40;;;13.90;85.80;;;;;;4987725;28;20038;-64
2023/10/27 09:37:41;;;;;;;5.38;0.50;;;14.00;85.40;;;;;;4987456;28;20038;-64
2023/10/27 09:40:11;;;;;;;0.90;0.22;;;14.00;85.60;;;;;;4987858;28;20030;-64
2023/10/27 09:42:37;;;;;;;2.85;0.40;;;14.10;84.60;;;;;;4986462;28;20038;-64
2023/10/27 09:45:17;;;;;;;1.38;0.30;;;14.10;84.70;;;;;;4987293;28;20050;-64
2023/10/27 09:47:47;;;;;;;0.85;0.30;;;14.20;83.80;;;;;;4987352;28;20060;-64
2023/10/27 09:50:21;;;;;;;2.35;0.40;;;14.20;83.60;;;;;;4987334;28;20067;-64
2023/10/27 09:52:49;;;;;;;2.92;0.65;;;14.30;82.10;;;;;;4988009;28;20031;-64
2023/10/27 09:55:16;;;;;;;1.98;0.43;;;14.30;82.20;;;;;;4990294;28;20037;-64
2023/10/27 09:57:46;;;;;;;2.40;0.43;;;14.20;82.20;;;;;;4990374;28;20061;-64
2023/10/27 10:00:15;;;;;;;3.72;0.50;;;14.30;81.90;;;;;;4990134;28;20043;-65
2023/10/27 10:02:42;;;;;;;1.63;0.30;;;14.20;81.50;;;;;;4990382;28;20030;-64
2023/10/27 10:05:09;;;;;;;3.25;0.43;;;14.20;82.20;;;;;;4990788;28;20064;-65
2023/10/27 10:07:56;;;;;;;2.35;0.50;;;14.20;81.80;;;;;;4990599;28;20108;-64
2023/10/27 10:10:34;;;;;;;2.15;0.40;;;14.20;79.70;;;;;;4988562;28;20038;-64
2023/10/27 10:13:06;;;;;;;2.10;0.40;;;14.20;80.80;;;;;;4989747;28;20494;-64
2023/10/27 10:15:36;;;;;;;2.13;0.30;;;14.20;80.60;;;;;;4990792;28;20441;-64
2023/10/27 10:18:21;;;;;;;2.85;0.40;;;14.20;80.50;;;;;;4989932;28;20117;-64
2023/10/27 10:20:52;;;;;;;3.65;0.50;;;14.20;81.20;;;;;;4990025;28;20063;-64
2023/10/27 10:23:19;;;;;;;2.53;0.57;;;14.20;80.30;;;;;;4990625;28;20522;-64
2023/10/27 10:26:03;;;;;;;1.13;0.20;;;14.20;80.60;;;;;;4989998;28;20057;-64
2023/10/27 10:28:33;;;;;;;2.10;0.43;;;14.20;80.10;;;;;;4990068;28;20057;-64
2023/10/27 10:31:07;;;;;;;1.05;0.32;;;14.30;80.60;;;;;;4990471;28;20127;-64
2023/10/27 10:33:37;;;;;;;1.15;0.30;;;14.30;80.10;;;;;;4990469;28;20049;-63
2023/10/27 10:36:14;;;;;;;0.98;0.30;;;14.30;81.60;;;;;;4990350;28;20035;-64
2023/10/27 10:38:44;;;;;;;1.65;0.43;;;14.30;79.60;;;;;;4989494;28;20100;-64
2023/10/27 10:41:10;;;;;;;5.93;0.60;;;14.30;80.20;;;;;;4990065;28;20046;-63
2023/10/27 10:43:42;;;;;;;3.17;0.40;;;14.30;79.80;;;;;;4989421;28;20058;-62
2023/10/27 10:46:12;;;;;;;1.85;0.35;;;14.40;79.90;;;;;;4990354;28;20042;-64
2023/10/27 10:48:45;;;;;;;1.80;0.40;;;14.40;80.20;;;;;;4989550;28;20073;-64
2023/10/27 10:51:29;;;;;;;2.28;0.57;;;14.50;80.00;;;;;;4990073;28;20085;-64
2023/10/27 10:53:55;;;;;;;4.13;0.55;;;14.50;80.50;;;;;;4989490;28;20042;-63
2023/10/27 10:56:21;;;;;;;1.80;0.45;;;14.60;80.70;;;;;;4990495;28;20031;-64
2023/10/27 10:58:47;;;;;;;2.88;0.50;;;14.60;79.10;;;;;;4987982;28;20038;-64
2023/10/27 11:01:16;;;;;;;1.52;0.40;;;14.60;79.40;;;;;;4989684;28;20034;-64
2023/10/27 11:03:47;;;;;;;1.98;0.30;;;14.60;78.40;;;;;;4987951;28;20026;-64
2023/10/27 11:06:12;;;;;;;2.55;0.50;;;14.60;78.20;;;;;;4990133;28;20498;-64
2023/10/27 11:08:38;;;;;;;1.70;0.30;;;14.70;78.50;;;;;;4989162;28;20042;-64
2023/10/27 11:11:05;;;;;;;1.33;0.30;;;14.70;78.20;;;;;;4989524;28;20027;-64
2023/10/27 11:13:33;;;;;;;1.92;0.50;;;14.70;78.50;;;;;;4989693;28;20517;-64
2023/10/27 11:16:02;;;;;;;1.65;0.47;;;14.70;78.50;;;;;;4989613;28;20042;-64
2023/10/27 11:18:29;;;;;;;4.78;0.60;;;14.60;78.80;;;;;;4988917;28;20129;-64
2023/10/27 11:20:55;;;;;;;1.02;0.30;;;14.70;78.70;;;;;;4988984;28;20477;-64
2023/10/27 11:23:21;;;;;;;0.80;0.20;;;14.70;79.10;;;;;;4989754;28;20041;-65
2023/10/27 11:25:46;;;;;;;0.70;0.32;;;14.60;78.70;;;;;;4989243;28;20042;-64
2023/10/27 11:28:18;;;;;;;0.63;0.28;;;14.60;79.40;;;;;;4989885;28;20034;-63
2023/10/27 11:30:55;;;;;;;0.73;0.17;;;14.60;79.60;;;;;;4988091;28;20410;-64
2023/10/27 11:33:21;;;;;;;1.00;0.30;;;14.50;80.80;;;;;;4989226;28;20157;-64
2023/10/27 11:35:47;;;;;;;0.85;0.20;;;14.50;80.40;;;;;;4989630;28;20121;-64
2023/10/27 11:38:12;;;;;;;1.05;0.28;;;14.40;80.70;;;;;;4987874;28;20046;-64
2023/10/27 11:40:38;;;;;;;1.17;0.30;;;14.40;81.20;;;;;;4988336;28;20402;-65
2023/10/27 11:43:04;;;;;;;3.78;0.30;;;14.30;81.70;;;;;;4989237;28;20030;-65
2023/10/27 11:45:29;;;;;;;1.17;0.20;;;14.30;82.20;;;;;;4988665;28;20505;-64
2023/10/27 11:47:55;;;;;;;1.48;0.40;;;14.30;82.70;;;;;;4987033;28;20038;-64
2023/10/27 11:50:20;;;;;;;0.85;0.22;;;14.30;83.40;;;;;;4988967;28;20058;-63
2023/10/27 11:52:46;;;;;;;1.13;0.40;;;14.30;83.60;;;;;;4988429;28;20035;-63
2023/10/27 11:55:11;;;;;;;0.32;0.15;;;14.30;83.90;;;;;;4989145;28;20177;-64
2023/10/27 11:57:37;;;;;;;1.05;0.30;;;14.40;83.80;;;;;;4988806;28;20062;-64
2023/10/27 12:00:03;;;;;;;1.40;0.20;;;14.50;83.40;;;;;;4987774;28;20060;-64
2023/10/27 12:02:29;;;;;;;2.78;0.30;;;14.50;83.10;;;;;;4988503;28;20038;-64
2023/10/27 12:04:54;;;;;;;2.15;0.50;;;14.50;83.20;;;;;;4988251;28;20039;-64
2023/10/27 12:07:20;;;;;;;1.35;0.35;;;14.60;83.20;;;;;;4988799;28;20048;-64
2023/10/27 12:09:45;;;;;;;1.17;0.20;;;14.60;83.00;;;;;;4988297;28;20113;-64
2023/10/27 12:12:11;;;;;;;1.48;0.30;;;14.60;82.90;;;;;;4985604;28;20407;-64
2023/10/27 12:14:37;;;;;;;0.88;0.20;;;14.70;82.30;;;;;;4987185;28;20034;-64
2023/10/27 12:17:05;;;;;;;3.40;0.30;;;14.70;81.70;;;;;;4987613;28;20070;-63
2023/10/27 12:19:31;;;;;;;0.82;0.20;;;14.70;81.90;;;;;;4988027;28;20410;-64
2023/10/27 12:21:57;;;;;;;0.70;0.30;;;14.70;81.90;;;;;;4988371;28;20046;-64
2023/10/27 12:24:23;;;;;;;1.10;0.45;;;14.70;81.40;;;;;;4987696;28;20038;-64
2023/10/27 12:26:49;;;;;;;0.77;0.60;;;14.70;81.00;;;;;;4987952;28;20124;-64
2023/10/27 12:29:15;;;;;;;1.50;0.30;;;14.70;80.90;;;;;;4988365;28;20042;-65
2023/10/27 12:31:41;;;;;;;0.55;0.20;;;14.80;80.50;;;;;;4987664;28;20173;-64
2023/10/27 12:34:10;;;;;;;2.03;0.47;;;14.70;80.70;;;;;;4987773;28;20041;-64
2023/10/27 12:36:36;;;;;;;1.02;0.30;;;14.70;81.00;;;;;;4987509;28;20053;-64
2023/10/27 12:39:02;;;;;;;0.40;0.20;;;14.70;80.80;;;;;;4988442;28;20030;-64
2023/10/27 12:41:27;;;;;;;0.28;0.15;;;14.70;80.90;;;;;;4988063;28;20034;-65
2023/10/27 12:43:53;;;;;;;1.40;0.20;;;14.70;80.90;;;;;;4987584;28;20112;-64
2023/10/27 12:46:18;;;;;;;2.38;0.10;;;14.70;80.60;;;;;;4988485;28;20038;-64